Time;durP1;ratioP1;P1;durP2;ratioP2;P2;SDS_P1;SDS_P2;PMS_P1;PMS_P2;Temp;Humidity;BMP_temperature;BMP_pressure;BME280_temperature;BME280_humidity;BME280_pressure;Samples;Min_cycle;Max_cycle;Signal;HPM_P1;HPM_P2
2021/04/11 00:01:25;;;;;;;3.70;1.30;;;12.90;84.50;;;;;;5039417;28;20197;-64
2021/04/11 00:03:51;;;;;;;5.17;1.17;;;12.90;85.00;;;;;;5050751;28;20640;-64
2021/04/11 00:06:16;;;;;;;3.63;1.00;;;12.80;82.90;;;;;;5052884;28;20692;-65
2021/04/11 00:08:42;;;;;;;4.00;1.10;;;12.90;82.20;;;;;;5042147;28;20182;-65
2021/04/11 00:11:08;;;;;;;3.30;0.60;;;12.80;81.60;;;;;;5036961;28;20174;-64
2021/04/11 00:13:37;;;;;;;3.60;0.80;;;12.80;81.40;;;;;;5043856;28;20537;-64
2021/04/11 00:16:04;;;;;;;3.88;1.25;;;12.80;80.80;;;;;;5032313;28;20307;-64
2021/04/11 00:18:30;;;;;;;5.35;0.70;;;12.80;80.80;;;;;;5040928;28;20185;-64
2021/04/11 00:20:56;;;;;;;3.40;0.70;;;12.80;80.60;;;;;;5050110;28;20677;-64
2021/04/11 00:23:24;;;;;;;4.22;1.25;;;12.80;80.50;;;;;;5039050;28;20754;-64
2021/04/11 00:25:50;;;;;;;3.47;0.85;;;12.80;80.40;;;;;;5052213;28;20652;-64
2021/04/11 00:28:17;;;;;;;3.50;0.90;;;12.80;80.50;;;;;;5042768;28;20174;-63
2021/04/11 00:30:44;;;;;;;3.78;1.00;;;12.70;80.60;;;;;;5050103;28;20177;-63
2021/04/11 00:33:39;;;;;;;3.20;0.60;;;12.70;80.80;;;;;;5044442;28;20556;-63
2021/04/11 00:36:08;;;;;;;3.33;0.40;;;12.70;80.60;;;;;;5035673;28;20676;-64
2021/04/11 00:38:35;;;;;;;5.30;1.10;;;12.60;80.50;;;;;;5050014;28;20186;-63
2021/04/11 00:41:30;;;;;;;3.83;0.80;;;12.50;80.40;;;;;;5039869;28;20206;-64
2021/04/11 00:43:56;;;;;;;5.75;1.00;;;12.50;80.40;;;;;;5053007;28;20188;-64
2021/04/11 00:46:29;;;;;;;3.72;0.85;;;12.50;80.50;;;;;;5056282;28;20225;-63
2021/04/11 00:48:55;;;;;;;3.83;1.05;;;12.40;80.60;;;;;;5050517;28;20196;-64
2021/04/11 00:51:25;;;;;;;3.63;0.87;;;12.30;80.50;;;;;;5056045;28;20173;-64
2021/04/11 00:53:50;;;;;;;3.65;0.98;;;12.30;80.80;;;;;;5039883;28;20843;-63
2021/04/11 00:56:17;;;;;;;5.90;1.10;;;12.20;81.10;;;;;;5036040;28;20214;-63
2021/04/11 00:58:42;;;;;;;3.70;1.48;;;12.10;81.40;;;;;;5039618;28;20731;-63
2021/04/11 01:01:09;;;;;;;4.57;1.70;;;12.10;82.40;;;;;;5036020;28;20210;-63
2021/04/11 01:03:38;;;;;;;3.90;1.13;;;12.10;83.30;;;;;;5048024;28;20174;-63
2021/04/11 01:06:08;;;;;;;4.78;1.35;;;12.10;85.10;;;;;;5054482;28;20667;-63
2021/04/11 01:08:34;;;;;;;4.35;1.50;;;12.10;85.80;;;;;;5047203;28;20181;-63
2021/04/11 01:11:11;;;;;;;3.70;1.00;;;12.00;86.40;;;;;;5055879;28;20174;-63
2021/04/11 01:13:43;;;;;;;3.40;0.98;;;11.90;87.00;;;;;;5043935;28;20231;-63
2021/04/11 01:16:10;;;;;;;3.92;1.30;;;11.80;87.20;;;;;;5036098;28;20668;-63
2021/04/11 01:18:37;;;;;;;4.20;1.80;;;11.70;88.10;;;;;;5044790;28;20269;-64
2021/04/11 01:21:15;;;;;;;4.05;1.40;;;11.60;88.90;;;;;;5035543;28;20205;-63
2021/04/11 01:23:52;;;;;;;12.10;1.73;;;11.60;90.00;;;;;;5047024;28;20161;-63
2021/04/11 01:26:19;;;;;;;4.32;1.30;;;11.50;90.20;;;;;;5040036;28;20197;-63
2021/04/11 01:28:47;;;;;;;5.35;1.75;;;11.50;90.70;;;;;;5049550;28;20254;-64
2021/04/11 01:31:14;;;;;;;4.50;1.98;;;11.40;90.90;;;;;;5055318;28;20217;-64
2021/04/11 01:33:49;;;;;;;4.72;1.92;;;11.40;90.90;;;;;;5041838;28;20182;-63
2021/04/11 01:36:20;;;;;;;3.90;1.30;;;11.40;91.10;;;;;;5049625;28;20200;-63
2021/04/11 01:38:47;;;;;;;4.85;1.85;;;11.30;91.20;;;;;;5040422;28;20186;-63
2021/04/11 01:41:21;;;;;;;5.90;1.50;;;11.30;91.50;;;;;;5035384;28;20558;-63
2021/04/11 01:43:49;;;;;;;4.18;1.38;;;11.30;91.80;;;;;;5042324;28;20534;-63
2021/04/11 01:46:15;;;;;;;6.22;1.65;;;11.40;91.90;;;;;;5042362;28;20201;-63
2021/04/11 01:48:43;;;;;;;3.83;1.13;;;11.40;92.00;;;;;;5055172;28;20583;-63
2021/04/11 01:51:12;;;;;;;4.20;1.58;;;11.40;91.80;;;;;;5054470;28;20165;-63
2021/04/11 01:53:38;;;;;;;7.07;1.67;;;11.40;91.90;;;;;;5052914;28;20174;-62
2021/04/11 01:56:06;;;;;;;6.03;2.55;;;11.40;91.90;;;;;;5052993;28;20197;-63
2021/04/11 01:58:34;;;;;;;4.68;1.60;;;11.40;92.00;;;;;;5054348;28;20228;-63
2021/04/11 02:01:03;;;;;;;4.40;1.40;;;11.40;92.40;;;;;;5054336;28;20197;-63
2021/04/11 02:03:29;;;;;;;5.30;1.48;;;11.40;92.80;;;;;;5036687;28;20173;-63
2021/04/11 02:05:55;;;;;;;4.70;1.37;;;11.30;93.10;;;;;;5054430;28;20185;-62
2021/04/11 02:08:25;;;;;;;3.50;1.07;;;11.30;93.10;;;;;;5035233;28;20683;-63
2021/04/11 02:10:53;;;;;;;5.55;2.03;;;11.30;93.20;;;;;;5033475;28;20190;-62
2021/04/11 02:13:23;;;;;;;4.40;1.38;;;11.40;93.00;;;;;;5039026;28;20660;-63
2021/04/11 02:15:52;;;;;;;4.47;1.40;;;11.40;92.80;;;;;;5039685;28;20196;-63
2021/04/11 02:18:18;;;;;;;3.75;1.35;;;11.40;92.90;;;;;;5036747;28;20166;-62
2021/04/11 02:20:44;;;;;;;4.03;1.20;;;11.40;92.80;;;;;;5034381;28;20173;-63
2021/04/11 02:23:15;;;;;;;3.60;1.30;;;11.40;92.80;;;;;;5049580;28;20177;-64
2021/04/11 02:25:44;;;;;;;3.78;2.05;;;11.40;92.80;;;;;;5052448;28;20226;-64
2021/04/11 02:28:12;;;;;;;3.67;0.85;;;11.40;92.90;;;;;;5054206;28;20166;-64
2021/04/11 02:31:21;;;;;;;4.38;2.08;;;11.40;92.90;;;;;;5052176;28;20686;-62
2021/04/11 02:33:57;;;;;;;4.00;1.30;;;11.40;93.30;;;;;;5033913;28;20173;-63
2021/04/11 02:36:25;;;;;;;3.58;0.90;;;11.40;93.40;;;;;;5035995;28;20201;-63
2021/04/11 02:38:55;;;;;;;4.85;1.83;;;11.50;93.30;;;;;;5034261;28;20166;-62
2021/04/11 02:41:22;;;;;;;5.45;1.50;;;11.40;93.40;;;;;;5034949;28;20198;-62
2021/04/11 02:43:48;;;;;;;4.50;1.25;;;11.40;93.60;;;;;;5033899;28;20249;-63
2021/04/11 02:46:14;;;;;;;4.30;1.40;;;11.40;94.20;;;;;;5038755;28;20292;-63
2021/04/11 02:48:40;;;;;;;8.38;1.92;;;11.40;94.00;;;;;;5054036;28;20836;-63
2021/04/11 02:51:06;;;;;;;4.27;1.50;;;11.40;94.20;;;;;;5049802;28;20204;-63
2021/04/11 02:53:34;;;;;;;3.50;1.30;;;11.40;94.40;;;;;;5053956;28;20437;-63
2021/04/11 02:56:01;;;;;;;4.45;1.45;;;11.50;94.60;;;;;;5049063;28;20189;-62
2021/04/11 02:58:27;;;;;;;4.80;1.50;;;11.50;95.00;;;;;;5033651;28;20193;-63
2021/04/11 03:01:01;;;;;;;3.75;1.15;;;11.40;95.20;;;;;;5035803;28;20263;-63
2021/04/11 03:03:28;;;;;;;3.40;1.20;;;11.40;95.80;;;;;;5053976;28;20571;-63
2021/04/11 03:05:56;;;;;;;4.43;1.40;;;11.30;95.70;;;;;;5037037;28;20205;-63
2021/04/11 03:08:26;;;;;;;6.78;2.53;;;11.30;96.20;;;;;;5053719;28;20169;-62
2021/04/11 03:11:17;;;;;;;4.72;2.25;;;11.30;96.50;;;;;;5053488;28;20173;-63
2021/04/11 03:13:44;;;;;;;4.07;1.50;;;11.30;96.70;;;;;;5053290;28;20202;-63
2021/04/11 03:16:10;;;;;;;5.60;1.85;;;11.30;97.30;;;;;;5051360;28;20188;-63
2021/04/11 03:18:37;;;;;;;4.00;1.27;;;11.20;97.60;;;;;;5033577;28;20170;-62
2021/04/11 03:21:04;;;;;;;4.40;1.70;;;11.10;98.00;;;;;;5034563;28;20552;-63
2021/04/11 03:23:31;;;;;;;4.00;1.20;;;11.00;98.20;;;;;;5034375;28;20178;-62
2021/04/11 03:26:03;;;;;;;4.18;1.70;;;10.90;98.50;;;;;;5031702;28;20197;-62
2021/04/11 03:28:36;;;;;;;3.92;1.42;;;10.90;98.70;;;;;;5033453;28;20170;-63
2021/04/11 03:31:10;;;;;;;4.45;1.45;;;10.90;98.90;;;;;;5044023;28;20221;-62
2021/04/11 03:33:39;;;;;;;4.32;1.17;;;10.90;99.10;;;;;;5033184;28;20178;-63
2021/04/11 03:36:08;;;;;;;5.00;1.42;;;10.90;99.20;;;;;;5032775;28;20678;-63
2021/04/11 03:38:34;;;;;;;4.18;1.40;;;10.90;99.10;;;;;;5053115;28;20264;-63
2021/04/11 03:41:01;;;;;;;4.07;1.87;;;10.90;99.10;;;;;;5042330;28;20668;-63
2021/04/11 03:43:51;;;;;;;7.15;1.65;;;10.90;99.10;;;;;;5052413;28;20428;-63
2021/04/11 03:46:41;;;;;;;3.80;1.40;;;10.90;99.10;;;;;;5051727;28;20652;-63
2021/04/11 03:49:15;;;;;;;3.70;1.38;;;10.80;98.70;;;;;;5033098;28;20173;-63
2021/04/11 03:51:42;;;;;;;6.50;2.10;;;10.80;98.60;;;;;;5045258;28;20178;-63
2021/04/11 03:54:19;;;;;;;3.30;1.02;;;10.80;98.60;;;;;;5032934;28;20166;-63
2021/04/11 03:57:06;;;;;;;3.50;1.20;;;10.80;98.30;;;;;;5036245;28;20284;-63
2021/04/11 03:59:56;;;;;;;4.68;1.08;;;10.80;98.00;;;;;;5053163;28;20193;-63
2021/04/11 04:02:24;;;;;;;4.00;1.20;;;10.70;97.90;;;;;;5043987;28;20213;-62
2021/04/11 04:04:50;;;;;;;4.25;1.25;;;10.70;98.30;;;;;;5056625;28;20169;-62
2021/04/11 04:07:20;;;;;;;3.55;0.90;;;10.70;98.50;;;;;;5049041;28;20201;-62
2021/04/11 04:09:57;;;;;;;9.13;2.45;;;10.70;98.80;;;;;;5049532;28;20260;-62
2021/04/11 04:13:01;;;;;;;3.83;1.15;;;10.70;99.20;;;;;;5049094;28;20169;-63
2021/04/11 04:15:44;;;;;;;3.75;1.00;;;10.60;99.50;;;;;;5036551;28;20529;-63
2021/04/11 04:18:34;;;;;;;3.85;1.25;;;10.60;99.90;;;;;;5050043;28;20170;-62
2021/04/11 04:21:28;;;;;;;3.80;1.20;;;10.50;99.90;;;;;;5036644;28;20205;-63
2021/04/11 04:23:59;;;;;;;3.63;0.93;;;10.60;99.90;;;;;;5056133;28;20274;-62
2021/04/11 04:26:37;;;;;;;3.75;1.20;;;10.50;99.90;;;;;;5043548;28;20193;-62
2021/04/11 04:29:27;;;;;;;3.88;1.23;;;10.50;99.90;;;;;;5056159;28;20203;-62
2021/04/11 04:32:10;;;;;;;3.75;1.23;;;10.50;99.90;;;;;;5040164;28;20202;-63
2021/04/11 04:34:35;;;;;;;4.32;1.00;;;10.60;99.90;;;;;;5036332;28;20240;-62
2021/04/11 04:37:16;;;;;;;3.40;0.90;;;10.60;99.90;;;;;;5049108;28;20324;-62
2021/04/11 04:39:51;;;;;;;5.25;1.40;;;10.60;99.90;;;;;;5036536;28;20178;-62
2021/04/11 04:42:39;;;;;;;4.30;1.58;;;10.60;99.90;;;;;;5055099;28;20235;-63
2021/04/11 04:45:19;;;;;;;4.20;1.15;;;10.70;99.90;;;;;;5055283;28;20165;-62
2021/04/11 04:48:03;;;;;;;4.38;1.23;;;10.70;99.90;;;;;;5044303;28;20173;-62
2021/04/11 04:50:42;;;;;;;3.80;1.30;;;10.70;99.90;;;;;;5053038;28;20176;-63
2021/04/11 04:53:07;;;;;;;3.78;1.25;;;10.70;99.90;;;;;;5036241;28;20177;-62
2021/04/11 04:55:36;;;;;;;4.07;1.20;;;10.70;99.90;;;;;;5038184;28;20262;-63
2021/04/11 04:58:09;;;;;;;4.00;1.63;;;10.80;99.90;;;;;;5044741;28;20233;-63
2021/04/11 05:00:39;;;;;;;3.83;1.33;;;10.90;99.90;;;;;;5039017;28;20182;-62
2021/04/11 05:03:15;;;;;;;4.75;1.77;;;10.90;99.90;;;;;;5054045;28;20169;-63
2021/04/11 05:05:46;;;;;;;5.78;1.00;;;10.90;99.90;;;;;;5051649;28;20550;-62
2021/04/11 05:08:28;;;;;;;4.97;1.30;;;10.90;99.90;;;;;;5046276;28;20688;-63
2021/04/11 05:10:59;;;;;;;4.95;1.67;;;10.90;99.90;;;;;;5050843;28;20656;-63
2021/04/11 05:13:26;;;;;;;3.75;1.23;;;11.00;99.90;;;;;;5034550;28;20158;-63
2021/04/11 05:16:00;;;;;;;3.25;0.77;;;11.00;99.90;;;;;;5038773;28;20189;-62
2021/04/11 05:18:31;;;;;;;5.65;1.60;;;11.10;99.80;;;;;;5042642;28;20173;-63
2021/04/11 05:21:12;;;;;;;5.15;1.30;;;11.10;99.60;;;;;;5040218;28;20193;-63
2021/04/11 05:23:46;;;;;;;4.40;1.73;;;11.10;99.70;;;;;;5055719;28;20243;-63
2021/04/11 05:26:16;;;;;;;4.13;1.00;;;11.10;99.70;;;;;;5047328;28;20201;-63
2021/04/11 05:28:58;;;;;;;4.20;1.35;;;11.10;99.80;;;;;;5035776;28;20172;-63
2021/04/11 05:31:38;;;;;;;3.60;1.27;;;11.20;99.90;;;;;;5044903;28;20586;-62
2021/04/11 05:34:07;;;;;;;3.70;1.23;;;11.20;99.90;;;;;;5054990;28;20940;-62
2021/04/11 05:36:47;;;;;;;4.40;1.10;;;11.20;99.90;;;;;;5052447;28;20232;-63
2021/04/11 05:39:24;;;;;;;5.55;1.77;;;11.30;99.90;;;;;;5055162;28;20169;-63
2021/04/11 05:42:14;;;;;;;4.00;1.30;;;11.30;99.90;;;;;;5041696;28;20190;-63
2021/04/11 05:44:47;;;;;;;4.72;1.35;;;11.30;99.90;;;;;;5034928;28;20536;-63
2021/04/11 05:47:37;;;;;;;4.25;1.80;;;11.40;99.90;;;;;;5036881;28;20648;-63
2021/04/11 05:50:10;;;;;;;3.58;1.27;;;11.40;99.90;;;;;;5035374;28;20181;-62
2021/04/11 05:53:10;;;;;;;3.95;1.23;;;11.50;99.90;;;;;;5046049;28;20540;-64
2021/04/11 05:55:41;;;;;;;3.70;1.45;;;11.50;99.90;;;;;;5038490;28;20245;-63
2021/04/11 05:58:15;;;;;;;3.78;1.00;;;11.60;99.90;;;;;;5044012;28;20669;-63
2021/04/11 06:00:54;;;;;;;5.22;2.03;;;11.70;99.80;;;;;;5036442;28;20564;-64
2021/04/11 06:03:24;;;;;;;7.03;1.83;;;11.80;99.50;;;;;;5054759;28;20177;-64
2021/04/11 06:06:03;;;;;;;4.63;1.15;;;11.80;99.60;;;;;;5041910;28;20205;-64
2021/04/11 06:08:34;;;;;;;4.13;1.98;;;11.90;99.60;;;;;;5054623;28;20163;-64
2021/04/11 06:11:08;;;;;;;5.50;1.33;;;11.90;99.70;;;;;;5051018;28;20166;-64
2021/04/11 06:13:46;;;;;;;4.70;1.70;;;12.00;99.80;;;;;;5034451;28;20186;-64
2021/04/11 06:16:15;;;;;;;6.32;1.92;;;12.00;99.90;;;;;;5046216;28;20712;-64
2021/04/11 06:18:44;;;;;;;5.55;1.60;;;12.00;99.70;;;;;;5054505;28;20207;-64
2021/04/11 06:21:51;;;;;;;3.70;1.00;;;12.10;99.40;;;;;;5052919;28;20204;-64
2021/04/11 06:24:31;;;;;;;3.90;1.23;;;12.20;99.10;;;;;;5050306;28;20197;-62
2021/04/11 06:27:03;;;;;;;4.88;1.73;;;12.20;99.00;;;;;;5034234;28;20221;-62
2021/04/11 06:29:53;;;;;;;4.97;1.70;;;12.20;99.10;;;;;;5037264;28;20176;-63
2021/04/11 06:32:21;;;;;;;7.55;1.70;;;12.20;99.10;;;;;;5037389;28;20182;-63
2021/04/11 06:34:54;;;;;;;4.18;1.67;;;12.20;99.20;;;;;;5034031;28;20177;-63
2021/04/11 06:37:21;;;;;;;4.70;1.50;;;12.30;99.20;;;;;;5033769;28;20201;-63
2021/04/11 06:39:48;;;;;;;4.50;1.67;;;12.30;99.00;;;;;;5037161;28;20694;-63
2021/04/11 06:42:42;;;;;;;4.35;1.48;;;12.50;98.90;;;;;;5037529;28;20213;-64
2021/04/11 06:45:27;;;;;;;3.70;1.25;;;12.70;98.90;;;;;;5040952;28;20174;-63
2021/04/11 06:48:01;;;;;;;3.35;0.90;;;12.90;98.30;;;;;;5053708;28;20524;-66
2021/04/11 06:50:52;;;;;;;5.00;1.48;;;13.10;97.60;;;;;;5043659;28;20530;-65
2021/04/11 06:54:03;;;;;;;3.63;1.35;;;13.20;97.40;;;;;;5041329;28;20551;-66
2021/04/11 06:56:43;;;;;;;3.90;1.03;;;13.40;97.30;;;;;;5038878;28;20259;-66
2021/04/11 06:59:18;;;;;;;5.50;1.80;;;13.60;96.80;;;;;;5033497;28;20442;-66
2021/04/11 07:02:04;;;;;;;4.67;1.40;;;13.80;96.40;;;;;;5053512;28;20303;-66
2021/04/11 07:04:58;;;;;;;8.93;2.53;;;14.00;96.10;;;;;;5051963;28;20432;-64
2021/04/11 07:07:38;;;;;;;4.87;1.70;;;14.20;95.40;;;;;;5033818;28;20801;-67
2021/04/11 07:10:22;;;;;;;4.37;1.23;;;14.40;94.90;;;;;;5038326;28;20417;-64
2021/04/11 07:12:57;;;;;;;3.77;1.27;;;14.50;94.70;;;;;;5053632;28;20415;-65
2021/04/11 07:15:31;;;;;;;4.20;1.90;;;14.60;94.20;;;;;;5045543;28;20441;-65
2021/04/11 07:18:00;;;;;;;4.37;1.60;;;14.80;94.60;;;;;;5035186;28;20889;-65
2021/04/11 07:20:35;;;;;;;4.33;1.57;;;14.80;93.80;;;;;;5045347;28;20489;-65
2021/04/11 07:23:24;;;;;;;4.40;1.60;;;14.90;93.50;;;;;;5033201;28;20557;-66
2021/04/11 07:25:53;;;;;;;4.10;1.30;;;15.00;93.10;;;;;;5038946;28;20432;-66
2021/04/11 07:29:06;;;;;;;5.30;1.30;;;15.00;92.40;;;;;;5032530;28;20403;-64
2021/04/11 07:32:03;;;;;;;4.67;1.70;;;15.10;92.60;;;;;;5028815;28;20423;-64
2021/04/11 07:34:47;;;;;;;4.00;1.47;;;15.10;92.70;;;;;;5025611;28;20444;-65
2021/04/11 07:38:10;;;;;;;6.20;2.27;;;15.30;92.50;;;;;;5031687;28;20448;-64
2021/04/11 07:40:59;;;;;;;7.00;2.40;;;15.40;92.20;;;;;;5049294;28;20880;-63
2021/04/11 07:43:56;;;;;;;4.03;1.70;;;15.60;91.90;;;;;;5047022;28;20953;-65
2021/04/11 07:46:45;;;;;;;5.03;1.50;;;15.70;91.80;;;;;;5044326;28;20451;-65
2021/04/11 07:49:50;;;;;;;3.70;1.00;;;15.80;91.00;;;;;;5052724;28;20416;-65
2021/04/11 07:52:48;;;;;;;4.63;1.30;;;16.00;90.50;;;;;;5042119;28;20430;-64
2021/04/11 07:55:13;;;;;;;4.63;1.33;;;16.10;90.10;;;;;;5038072;28;20499;-64
2021/04/11 07:58:16;;;;;;;4.50;1.30;;;16.20;88.70;;;;;;5037813;28;20532;-64
2021/04/11 08:01:29;;;;;;;4.20;1.20;;;16.30;88.30;;;;;;5039623;28;20513;-64
2021/04/11 08:04:20;;;;;;;4.93;2.23;;;16.50;87.80;;;;;;5029629;28;20438;-65
2021/04/11 08:07:09;;;;;;;4.43;1.07;;;16.80;87.50;;;;;;5037664;28;20547;-64
2021/04/11 08:10:13;;;;;;;3.90;1.47;;;17.10;86.10;;;;;;5039555;28;20421;-64
2021/04/11 08:13:09;;;;;;;4.53;1.10;;;17.40;86.30;;;;;;5004633;28;20940;-64
2021/04/11 08:15:35;;;;;;;6.27;1.50;;;18.00;84.80;;;;;;5023420;28;20486;-64
2021/04/11 08:18:42;;;;;;;5.47;1.20;;;18.70;81.10;;;;;;5037737;28;21337;-65
2021/04/11 08:21:39;;;;;;;4.20;1.27;;;19.40;79.60;;;;;;5031869;28;20220;-64
2021/04/11 08:24:26;;;;;;;3.80;1.30;;;19.80;76.10;;;;;;5038277;28;20398;-64
2021/04/11 08:27:08;;;;;;;3.60;1.10;;;20.00;74.60;;;;;;5051178;28;20431;-65
2021/04/11 08:30:10;;;;;;;4.33;1.20;;;20.10;73.50;;;;;;5051297;28;20409;-64
2021/04/11 08:32:57;;;;;;;4.30;1.40;;;20.70;73.60;;;;;;5036651;28;20415;-62
2021/04/11 08:35:50;;;;;;;5.17;1.40;;;21.80;72.40;;;;;;5041207;28;20441;-62
2021/04/11 08:38:43;;;;;;;4.00;1.40;;;22.50;68.00;;;;;;5049713;28;20502;-64
2021/04/11 08:41:55;;;;;;;3.13;0.83;;;22.70;67.60;;;;;;5071257;28;20429;-65
2021/04/11 08:44:32;;;;;;;3.40;1.00;;;22.70;63.90;;;;;;5030646;28;20399;-68
2021/04/11 08:47:15;;;;;;;3.10;0.70;;;22.80;63.70;;;;;;5037003;28;20474;-66
2021/04/11 08:49:57;;;;;;;2.90;0.70;;;23.20;63.50;;;;;;5055849;28;20380;-66
2021/04/11 08:52:37;;;;;;;3.60;1.00;;;23.80;62.20;;;;;;5046590;28;20447;-64
2021/04/11 08:55:17;;;;;;;3.87;0.83;;;24.60;61.70;;;;;;5036465;28;20774;-69
2021/04/11 08:58:26;;;;;;;3.27;0.83;;;25.40;58.10;;;;;;5041586;28;20786;-69
2021/04/11 09:01:24;;;;;;;3.87;1.60;;;26.10;56.80;;;;;;5043727;28;20929;-66
2021/04/11 09:04:14;;;;;;;3.00;0.90;;;26.60;55.70;;;;;;5043791;28;20866;-66
2021/04/11 09:06:57;;;;;;;3.80;1.23;;;26.70;54.50;;;;;;5042603;28;20463;-65
2021/04/11 09:09:54;;;;;;;3.27;1.10;;;26.50;54.70;;;;;;5044029;28;20467;-64
2021/04/11 09:12:56;;;;;;;3.00;1.30;;;26.80;54.50;;;;;;5039925;28;20428;-66
2021/04/11 09:15:25;;;;;;;3.10;1.00;;;26.70;54.10;;;;;;5034734;28;20409;-65
2021/04/11 09:18:17;;;;;;;3.40;1.00;;;26.40;54.70;;;;;;5035234;28;20433;-65
2021/04/11 09:21:20;;;;;;;2.67;0.77;;;25.80;53.90;;;;;;5039845;28;20395;-65
2021/04/11 09:23:58;;;;;;;2.70;0.80;;;25.10;54.60;;;;;;5043012;28;20407;-65
2021/04/11 09:26:42;;;;;;;2.73;0.73;;;24.40;55.20;;;;;;5041604;28;20973;-65
2021/04/11 09:29:16;;;;;;;3.20;0.90;;;23.40;56.80;;;;;;5043031;28;20517;-65
2021/04/11 09:32:13;;;;;;;2.90;0.80;;;22.80;56.80;;;;;;5036884;28;20420;-65
2021/04/11 09:34:56;;;;;;;3.37;0.90;;;22.20;57.60;;;;;;5034112;28;20423;-65
2021/04/11 09:37:36;;;;;;;3.37;1.10;;;21.80;58.50;;;;;;5051605;28;20536;-64
2021/04/11 09:40:38;;;;;;;2.93;0.90;;;21.00;59.50;;;;;;5054016;28;20857;-64
2021/04/11 09:43:15;;;;;;;3.43;0.80;;;20.70;60.60;;;;;;5034083;28;20529;-64
2021/04/11 09:46:02;;;;;;;2.70;0.73;;;20.80;60.40;;;;;;5036932;28;20520;-63
2021/04/11 09:48:44;;;;;;;3.17;1.03;;;20.60;60.40;;;;;;5053947;28;20412;-62
2021/04/11 09:51:39;;;;;;;3.50;1.00;;;20.50;59.80;;;;;;5053248;28;20416;-62
2021/04/11 09:54:23;;;;;;;3.00;0.70;;;20.50;61.90;;;;;;5052000;28;20467;-63
2021/04/11 09:57:27;;;;;;;2.53;0.50;;;20.60;61.80;;;;;;5042261;28;20449;-65
2021/04/11 10:00:08;;;;;;;3.30;1.00;;;20.70;59.80;;;;;;5033212;28;20443;-63
2021/04/11 10:02:48;;;;;;;2.73;0.70;;;20.80;59.90;;;;;;5050575;28;20456;-62
2021/04/11 10:05:31;;;;;;;2.80;0.70;;;21.00;59.80;;;;;;5039602;28;20419;-62
2021/04/11 10:07:59;;;;;;;3.30;1.13;;;21.20;60.80;;;;;;5034166;28;20404;-63
2021/04/11 10:10:52;;;;;;;4.17;1.00;;;21.70;59.90;;;;;;5035071;28;20815;-62
2021/04/11 10:13:46;;;;;;;2.80;0.50;;;22.50;58.80;;;;;;5038422;28;20404;-63
2021/04/11 10:16:19;;;;;;;3.43;0.90;;;23.10;57.20;;;;;;5032679;28;20440;-64
2021/04/11 10:19:09;;;;;;;2.90;0.90;;;23.40;57.50;;;;;;5034199;28;20853;-63
2021/04/11 10:21:52;;;;;;;2.70;0.60;;;23.80;56.20;;;;;;5053874;28;20865;-64
2021/04/11 10:24:33;;;;;;;2.70;0.60;;;24.00;56.60;;;;;;5037977;28;20429;-66
2021/04/11 10:27:16;;;;;;;2.60;0.50;;;24.20;56.20;;;;;;5033835;28;20875;-64
2021/04/11 10:29:44;;;;;;;2.70;0.60;;;24.30;55.50;;;;;;5051555;28;20392;-64
2021/04/11 10:32:28;;;;;;;4.20;1.03;;;24.50;55.90;;;;;;5053900;28;20420;-68
2021/04/11 10:35:06;;;;;;;3.00;0.90;;;24.70;55.10;;;;;;5032270;28;20399;-63
2021/04/11 10:37:52;;;;;;;2.70;0.70;;;24.70;56.40;;;;;;5033890;28;20974;-64
2021/04/11 10:40:54;;;;;;;2.70;0.63;;;25.00;53.80;;;;;;5042495;28;20791;-66
2021/04/11 10:43:34;;;;;;;2.70;0.80;;;25.30;54.30;;;;;;5040175;28;20406;-65
2021/04/11 10:46:24;;;;;;;2.50;0.67;;;25.40;52.90;;;;;;5032932;28;20427;-69
2021/04/11 10:49:27;;;;;;;2.77;0.77;;;25.20;53.60;;;;;;5040849;28;20420;-66
2021/04/11 10:52:05;;;;;;;2.60;0.70;;;24.90;53.90;;;;;;5035701;28;20792;-68
2021/04/11 10:54:49;;;;;;;2.60;0.60;;;25.00;53.50;;;;;;5043061;28;20450;-67
2021/04/11 10:57:33;;;;;;;3.37;1.00;;;25.10;52.90;;;;;;5053150;28;20411;-68
2021/04/11 11:00:22;;;;;;;3.00;0.87;;;25.00;52.80;;;;;;5052365;28;20414;-69
2021/04/11 11:03:07;;;;;;;3.73;0.70;;;25.30;53.10;;;;;;5051896;28;20493;-72
2021/04/11 11:05:54;;;;;;;2.90;0.63;;;25.30;52.00;;;;;;5032790;28;20454;-69
2021/04/11 11:08:38;;;;;;;3.23;1.03;;;25.10;51.80;;;;;;5039721;28;20431;-72
2021/04/11 11:11:21;;;;;;;2.87;0.90;;;24.80;51.80;;;;;;5053219;28;20415;-72
2021/04/11 11:14:23;;;;;;;3.23;1.00;;;24.20;52.40;;;;;;5051282;28;20416;-72
2021/04/11 11:17:07;;;;;;;3.30;1.30;;;23.60;53.30;;;;;;5053201;28;20764;-70
2021/04/11 11:19:52;;;;;;;3.17;0.90;;;23.30;53.70;;;;;;5036212;28;20420;-70
2021/04/11 11:22:38;;;;;;;2.77;0.80;;;23.20;55.40;;;;;;5033096;28;20449;-67
2021/04/11 11:25:06;;;;;;;4.33;0.87;;;23.30;54.80;;;;;;5033040;28;20427;-70
2021/04/11 11:28:00;;;;;;;2.80;0.70;;;23.30;54.90;;;;;;5031801;28;20535;-65
2021/04/11 11:30:52;;;;;;;3.00;0.90;;;23.30;54.40;;;;;;5033100;28;20393;-64
2021/04/11 11:33:35;;;;;;;4.10;1.40;;;23.10;54.30;;;;;;5036396;28;20953;-64
2021/04/11 11:36:03;;;;;;;3.00;0.90;;;22.80;55.60;;;;;;5052530;28;20424;-64
2021/04/11 11:38:48;;;;;;;2.80;1.00;;;22.50;55.80;;;;;;5046246;28;20469;-65
2021/04/11 11:41:45;;;;;;;3.37;0.90;;;22.30;55.80;;;;;;5032688;28;20455;-69
2021/04/11 11:44:54;;;;;;;3.90;1.20;;;21.90;55.70;;;;;;5043184;28;20424;-73
2021/04/11 11:47:40;;;;;;;3.00;0.97;;;21.50;56.50;;;;;;5052435;28;20473;-70
2021/04/11 11:50:31;;;;;;;3.57;0.93;;;21.30;56.80;;;;;;5034151;28;20728;-72
2021/04/11 11:53:12;;;;;;;6.17;1.90;;;21.20;56.80;;;;;;5032290;28;20450;-71
2021/04/11 11:55:43;;;;;;;4.10;1.03;;;21.10;57.90;;;;;;5038023;28;21004;-70
2021/04/11 11:58:18;;;;;;;6.13;2.20;;;21.00;57.70;;;;;;5040032;28;20425;-74
2021/04/11 12:00:56;;;;;;;3.50;1.17;;;21.00;58.10;;;;;;5042285;28;20419;-73
2021/04/11 12:03:32;;;;;;;3.80;1.80;;;20.90;58.50;;;;;;5040284;28;20439;-72
2021/04/11 12:06:20;;;;;;;3.70;1.27;;;20.90;58.50;;;;;;5040525;28;20798;-69
2021/04/11 12:09:05;;;;;;;3.10;0.77;;;20.90;58.50;;;;;;5044280;28;20748;-74
2021/04/11 12:11:42;;;;;;;3.70;1.10;;;21.00;58.10;;;;;;5032504;28;20420;-69
2021/04/11 12:14:22;;;;;;;7.30;1.90;;;21.30;57.90;;;;;;5043191;28;20916;-68
2021/04/11 12:17:00;;;;;;;3.67;1.03;;;21.70;58.70;;;;;;5052267;28;20464;-67
2021/04/11 12:19:37;;;;;;;3.30;1.10;;;22.00;57.70;;;;;;5038034;28;20471;-69
2021/04/11 12:22:06;;;;;;;3.00;0.83;;;22.30;57.00;;;;;;5036885;28;20451;-68
2021/04/11 12:24:48;;;;;;;3.50;1.00;;;22.50;55.70;;;;;;5055960;28;20404;-69
2021/04/11 12:27:15;;;;;;;3.87;1.60;;;22.50;55.80;;;;;;5051061;28;20940;-68
2021/04/11 12:29:48;;;;;;;3.30;1.20;;;22.40;56.10;;;;;;5036321;28;20554;-70
2021/04/11 12:32:25;;;;;;;3.37;0.87;;;22.40;56.90;;;;;;5039172;28;21071;-70
2021/04/11 12:35:16;;;;;;;3.00;0.90;;;22.30;56.30;;;;;;5055828;28;20408;-64
2021/04/11 12:38:18;;;;;;;2.90;0.73;;;22.40;56.60;;;;;;5047282;28;20441;-65
2021/04/11 12:41:01;;;;;;;3.87;1.13;;;22.60;56.40;;;;;;5037161;28;20937;-64
2021/04/11 12:43:42;;;;;;;3.00;0.80;;;22.80;55.40;;;;;;5040148;28;20783;-64
2021/04/11 12:46:14;;;;;;;3.10;1.13;;;22.80;55.00;;;;;;5035689;28;20425;-68
2021/04/11 12:49:00;;;;;;;3.03;1.00;;;22.60;55.80;;;;;;5050740;28;20462;-67
2021/04/11 12:51:45;;;;;;;3.23;0.90;;;22.50;57.30;;;;;;5054769;28;20924;-66
2021/04/11 12:54:14;;;;;;;3.30;1.10;;;22.10;58.90;;;;;;5037503;28;20437;-64
2021/04/11 12:56:45;;;;;;;2.90;0.60;;;21.80;59.50;;;;;;5035999;28;20441;-63
2021/04/11 12:59:18;;;;;;;4.10;1.20;;;21.30;60.10;;;;;;5055153;28;20443;-63
2021/04/11 13:01:48;;;;;;;3.07;0.90;;;21.10;60.60;;;;;;5035851;28;20449;-63
2021/04/11 13:04:30;;;;;;;3.13;0.73;;;20.90;61.40;;;;;;5053988;28;20422;-63
2021/04/11 13:07:38;;;;;;;2.90;0.90;;;20.60;61.20;;;;;;5046096;28;20939;-64
2021/04/11 13:10:18;;;;;;;3.50;1.03;;;20.20;62.20;;;;;;5044136;28;20427;-63
2021/04/11 13:12:51;;;;;;;3.47;1.37;;;20.00;62.90;;;;;;5040525;28;20417;-62
2021/04/11 13:15:36;;;;;;;4.70;1.00;;;19.90;63.50;;;;;;5055091;28;20410;-62
2021/04/11 13:18:35;;;;;;;3.20;1.07;;;19.80;66.20;;;;;;5046833;28;20479;-62
2021/04/11 13:21:04;;;;;;;3.10;0.90;;;19.70;67.80;;;;;;5035020;28;20429;-62
2021/04/11 13:23:35;;;;;;;4.07;0.90;;;19.60;68.10;;;;;;5048946;28;20440;-64
2021/04/11 13:26:39;;;;;;;3.23;1.10;;;19.40;69.00;;;;;;5054840;28;20426;-65
2021/04/11 13:29:21;;;;;;;2.90;0.70;;;19.30;69.50;;;;;;5035229;28;20466;-64
2021/04/11 13:32:00;;;;;;;4.77;1.27;;;19.30;68.90;;;;;;5035753;28;21157;-65
2021/04/11 13:34:38;;;;;;;3.47;1.13;;;19.30;69.10;;;;;;5053387;28;20789;-63
2021/04/11 13:37:11;;;;;;;3.00;0.80;;;19.30;69.70;;;;;;5051068;28;20443;-63
2021/04/11 13:39:40;;;;;;;4.27;1.20;;;19.30;70.00;;;;;;5035264;28;20490;-65
2021/04/11 13:42:17;;;;;;;3.67;1.13;;;19.20;69.20;;;;;;5038100;28;20848;-64
2021/04/11 13:44:58;;;;;;;3.00;0.90;;;19.00;70.60;;;;;;5036776;28;20421;-63
2021/04/11 13:47:26;;;;;;;3.20;0.80;;;19.00;71.10;;;;;;5049658;28;20436;-64
2021/04/11 13:49:58;;;;;;;3.17;0.80;;;19.00;71.00;;;;;;5035008;28;20974;-62